sensor_id;sensor_type;location;lat;lon;timestamp;P1;durP1;ratioP1;P2;durP2;ratioP2
2866;SDS011;1441;48.886;8.728;2024-01-25T00:01:52;18.23;;;3.17;;
2866;SDS011;1441;48.886;8.728;2024-01-25T00:04:19;38.73;;;4.40;;
2866;SDS011;1441;48.886;8.728;2024-01-25T00:06:44;19.80;;;4.30;;
2866;SDS011;1441;48.886;8.728;2024-01-25T00:09:10;19.10;;;2.83;;
2866;SDS011;1441;48.886;8.728;2024-01-25T00:11:35;23.20;;;3.23;;
2866;SDS011;1441;48.886;8.728;2024-01-25T00:14:01;13.73;;;4.53;;
2866;SDS011;1441;48.886;8.728;2024-01-25T00:16:27;19.40;;;2.63;;
2866;SDS011;1441;48.886;8.728;2024-01-25T00:18:53;15.53;;;3.67;;
2866;SDS011;1441;48.886;8.728;2024-01-25T00:21:18;15.97;;;3.13;;
2866;SDS011;1441;48.886;8.728;2024-01-25T00:23:44;23.13;;;3.60;;
2866;SDS011;1441;48.886;8.728;2024-01-25T00:26:09;18.07;;;3.90;;
2866;SDS011;1441;48.886;8.728;2024-01-25T00:28:35;18.80;;;2.63;;
2866;SDS011;1441;48.886;8.728;2024-01-25T00:31:00;19.00;;;3.93;;
2866;SDS011;1441;48.886;8.728;2024-01-25T00:33:26;15.03;;;3.77;;
2866;SDS011;1441;48.886;8.728;2024-01-25T00:35:51;15.33;;;3.30;;
2866;SDS011;1441;48.886;8.728;2024-01-25T00:38:17;24.97;;;3.53;;
2866;SDS011;1441;48.886;8.728;2024-01-25T00:40:43;30.43;;;3.63;;
2866;SDS011;1441;48.886;8.728;2024-01-25T00:43:09;15.07;;;3.33;;
2866;SDS011;1441;48.886;8.728;2024-01-25T00:45:35;24.97;;;3.70;;
2866;SDS011;1441;48.886;8.728;2024-01-25T00:48:02;20.30;;;3.57;;
2866;SDS011;1441;48.886;8.728;2024-01-25T00:50:28;25.63;;;3.50;;
2866;SDS011;1441;48.886;8.728;2024-01-25T00:52:54;16.57;;;2.80;;
2866;SDS011;1441;48.886;8.728;2024-01-25T00:55:20;11.43;;;2.40;;
2866;SDS011;1441;48.886;8.728;2024-01-25T00:57:46;17.23;;;3.00;;
2866;SDS011;1441;48.886;8.728;2024-01-25T01:00:12;12.93;;;2.93;;
2866;SDS011;1441;48.886;8.728;2024-01-25T01:02:42;15.23;;;3.10;;
2866;SDS011;1441;48.886;8.728;2024-01-25T01:05:09;14.57;;;2.90;;
2866;SDS011;1441;48.886;8.728;2024-01-25T01:07:35;15.70;;;2.50;;
2866;SDS011;1441;48.886;8.728;2024-01-25T01:10:01;15.60;;;2.60;;
2866;SDS011;1441;48.886;8.728;2024-01-25T01:12:26;16.27;;;2.93;;
2866;SDS011;1441;48.886;8.728;2024-01-25T01:14:52;16.90;;;2.97;;
2866;SDS011;1441;48.886;8.728;2024-01-25T01:17:18;20.43;;;2.97;;
2866;SDS011;1441;48.886;8.728;2024-01-25T01:19:43;24.37;;;3.03;;
2866;SDS011;1441;48.886;8.728;2024-01-25T01:22:09;21.87;;;3.20;;
2866;SDS011;1441;48.886;8.728;2024-01-25T01:24:35;14.90;;;2.80;;
2866;SDS011;1441;48.886;8.728;2024-01-25T01:27:00;16.10;;;2.83;;
2866;SDS011;1441;48.886;8.728;2024-01-25T01:29:26;15.60;;;3.13;;
2866;SDS011;1441;48.886;8.728;2024-01-25T01:31:52;9.53;;;2.80;;
2866;SDS011;1441;48.886;8.728;2024-01-25T01:34:17;12.27;;;2.73;;
2866;SDS011;1441;48.886;8.728;2024-01-25T01:36:44;15.73;;;2.97;;
2866;SDS011;1441;48.886;8.728;2024-01-25T01:39:10;15.20;;;2.83;;
2866;SDS011;1441;48.886;8.728;2024-01-25T01:41:35;18.67;;;3.00;;
2866;SDS011;1441;48.886;8.728;2024-01-25T01:44:01;15.80;;;4.07;;
2866;SDS011;1441;48.886;8.728;2024-01-25T01:46:32;13.73;;;2.20;;
2866;SDS011;1441;48.886;8.728;2024-01-25T01:48:59;18.27;;;3.17;;
2866;SDS011;1441;48.886;8.728;2024-01-25T01:51:26;16.47;;;3.03;;
2866;SDS011;1441;48.886;8.728;2024-01-25T01:53:54;9.23;;;3.13;;
2866;SDS011;1441;48.886;8.728;2024-01-25T01:56:20;17.00;;;3.20;;
2866;SDS011;1441;48.886;8.728;2024-01-25T01:58:46;18.17;;;4.30;;
2866;SDS011;1441;48.886;8.728;2024-01-25T02:01:13;25.20;;;4.23;;
2866;SDS011;1441;48.886;8.728;2024-01-25T02:03:39;17.97;;;2.83;;
2866;SDS011;1441;48.886;8.728;2024-01-25T02:06:05;13.67;;;2.80;;
2866;SDS011;1441;48.886;8.728;2024-01-25T02:08:31;24.67;;;2.97;;
2866;SDS011;1441;48.886;8.728;2024-01-25T02:10:58;14.33;;;2.47;;
2866;SDS011;1441;48.886;8.728;2024-01-25T02:13:23;20.13;;;2.80;;
2866;SDS011;1441;48.886;8.728;2024-01-25T02:15:49;16.53;;;3.20;;
2866;SDS011;1441;48.886;8.728;2024-01-25T02:18:14;18.97;;;3.40;;
2866;SDS011;1441;48.886;8.728;2024-01-25T02:20:40;18.77;;;2.67;;
2866;SDS011;1441;48.886;8.728;2024-01-25T02:23:07;20.10;;;4.00;;
2866;SDS011;1441;48.886;8.728;2024-01-25T02:25:33;19.37;;;3.10;;
2866;SDS011;1441;48.886;8.728;2024-01-25T02:27:58;21.33;;;3.17;;
2866;SDS011;1441;48.886;8.728;2024-01-25T02:30:25;17.37;;;2.70;;
2866;SDS011;1441;48.886;8.728;2024-01-25T02:32:51;24.73;;;4.07;;
2866;SDS011;1441;48.886;8.728;2024-01-25T02:35:17;10.40;;;2.83;;
2866;SDS011;1441;48.886;8.728;2024-01-25T02:37:43;17.70;;;3.23;;
2866;SDS011;1441;48.886;8.728;2024-01-25T02:40:08;8.80;;;3.00;;
2866;SDS011;1441;48.886;8.728;2024-01-25T02:42:34;19.53;;;2.90;;
2866;SDS011;1441;48.886;8.728;2024-01-25T02:45:00;15.53;;;3.00;;
2866;SDS011;1441;48.886;8.728;2024-01-25T02:47:25;12.87;;;2.37;;
2866;SDS011;1441;48.886;8.728;2024-01-25T02:49:51;14.23;;;2.70;;
2866;SDS011;1441;48.886;8.728;2024-01-25T02:52:17;18.83;;;3.27;;
2866;SDS011;1441;48.886;8.728;2024-01-25T02:54:43;18.30;;;3.50;;
2866;SDS011;1441;48.886;8.728;2024-01-25T02:57:10;12.87;;;2.17;;
2866;SDS011;1441;48.886;8.728;2024-01-25T02:59:35;18.30;;;2.67;;
2866;SDS011;1441;48.886;8.728;2024-01-25T03:02:01;12.33;;;2.50;;
2866;SDS011;1441;48.886;8.728;2024-01-25T03:04:28;16.83;;;3.60;;
2866;SDS011;1441;48.886;8.728;2024-01-25T03:06:53;29.30;;;2.90;;
2866;SDS011;1441;48.886;8.728;2024-01-25T03:09:19;12.97;;;2.30;;
2866;SDS011;1441;48.886;8.728;2024-01-25T03:11:46;15.07;;;4.03;;
2866;SDS011;1441;48.886;8.728;2024-01-25T03:14:11;10.43;;;3.10;;
2866;SDS011;1441;48.886;8.728;2024-01-25T03:16:37;13.97;;;2.40;;
2866;SDS011;1441;48.886;8.728;2024-01-25T03:19:03;10.80;;;2.90;;
2866;SDS011;1441;48.886;8.728;2024-01-25T03:21:28;16.00;;;3.13;;
2866;SDS011;1441;48.886;8.728;2024-01-25T03:23:54;14.57;;;2.33;;
2866;SDS011;1441;48.886;8.728;2024-01-25T03:26:19;13.80;;;2.90;;
2866;SDS011;1441;48.886;8.728;2024-01-25T03:28:45;14.33;;;2.57;;
2866;SDS011;1441;48.886;8.728;2024-01-25T03:31:10;19.53;;;3.57;;
2866;SDS011;1441;48.886;8.728;2024-01-25T03:33:36;20.30;;;2.90;;
2866;SDS011;1441;48.886;8.728;2024-01-25T03:36:05;14.43;;;2.83;;
2866;SDS011;1441;48.886;8.728;2024-01-25T03:38:31;12.47;;;2.87;;
2866;SDS011;1441;48.886;8.728;2024-01-25T03:40:57;20.47;;;3.13;;
2866;SDS011;1441;48.886;8.728;2024-01-25T03:43:24;13.53;;;3.07;;
2866;SDS011;1441;48.886;8.728;2024-01-25T03:45:50;13.83;;;2.93;;
2866;SDS011;1441;48.886;8.728;2024-01-25T03:48:15;18.10;;;3.30;;
2866;SDS011;1441;48.886;8.728;2024-01-25T03:50:41;17.80;;;3.23;;
2866;SDS011;1441;48.886;8.728;2024-01-25T03:53:06;15.00;;;2.77;;
2866;SDS011;1441;48.886;8.728;2024-01-25T03:55:32;19.53;;;3.97;;
2866;SDS011;1441;48.886;8.728;2024-01-25T03:57:58;19.17;;;3.27;;
2866;SDS011;1441;48.886;8.728;2024-01-25T04:00:23;14.83;;;3.63;;
2866;SDS011;1441;48.886;8.728;2024-01-25T04:02:49;17.70;;;3.70;;
2866;SDS011;1441;48.886;8.728;2024-01-25T04:05:15;14.17;;;3.40;;
2866;SDS011;1441;48.886;8.728;2024-01-25T04:07:41;18.33;;;3.07;;
2866;SDS011;1441;48.886;8.728;2024-01-25T04:10:06;19.73;;;3.07;;
2866;SDS011;1441;48.886;8.728;2024-01-25T04:12:32;19.23;;;3.30;;
2866;SDS011;1441;48.886;8.728;2024-01-25T04:14:58;8.07;;;2.90;;
2866;SDS011;1441;48.886;8.728;2024-01-25T04:17:24;20.87;;;3.77;;
2866;SDS011;1441;48.886;8.728;2024-01-25T04:19:50;23.57;;;4.80;;
2866;SDS011;1441;48.886;8.728;2024-01-25T04:22:18;15.17;;;3.23;;
2866;SDS011;1441;48.886;8.728;2024-01-25T04:24:44;12.57;;;3.17;;
2866;SDS011;1441;48.886;8.728;2024-01-25T04:27:12;16.70;;;3.20;;
2866;SDS011;1441;48.886;8.728;2024-01-25T04:29:38;22.60;;;3.00;;
2866;SDS011;1441;48.886;8.728;2024-01-25T04:32:05;14.83;;;2.10;;
2866;SDS011;1441;48.886;8.728;2024-01-25T04:34:32;17.00;;;2.97;;
2866;SDS011;1441;48.886;8.728;2024-01-25T04:36:57;15.90;;;2.50;;
2866;SDS011;1441;48.886;8.728;2024-01-25T04:39:23;8.90;;;2.90;;
2866;SDS011;1441;48.886;8.728;2024-01-25T04:41:48;14.97;;;2.97;;
2866;SDS011;1441;48.886;8.728;2024-01-25T04:44:14;17.40;;;3.30;;
2866;SDS011;1441;48.886;8.728;2024-01-25T04:46:40;12.10;;;3.40;;
2866;SDS011;1441;48.886;8.728;2024-01-25T04:49:06;17.03;;;2.97;;
2866;SDS011;1441;48.886;8.728;2024-01-25T04:51:32;20.67;;;2.93;;
2866;SDS011;1441;48.886;8.728;2024-01-25T04:53:57;15.20;;;3.37;;
2866;SDS011;1441;48.886;8.728;2024-01-25T04:56:23;24.87;;;3.47;;
2866;SDS011;1441;48.886;8.728;2024-01-25T04:58:48;16.40;;;3.20;;
2866;SDS011;1441;48.886;8.728;2024-01-25T05:01:14;26.00;;;3.80;;
2866;SDS011;1441;48.886;8.728;2024-01-25T05:03:39;17.33;;;2.87;;
2866;SDS011;1441;48.886;8.728;2024-01-25T05:06:05;26.03;;;3.60;;
2866;SDS011;1441;48.886;8.728;2024-01-25T05:08:30;13.97;;;4.00;;
2866;SDS011;1441;48.886;8.728;2024-01-25T05:10:56;21.13;;;3.83;;
2866;SDS011;1441;48.886;8.728;2024-01-25T05:13:22;22.13;;;3.57;;
2866;SDS011;1441;48.886;8.728;2024-01-25T05:15:48;17.80;;;2.93;;
2866;SDS011;1441;48.886;8.728;2024-01-25T05:18:13;16.20;;;3.10;;
2866;SDS011;1441;48.886;8.728;2024-01-25T05:20:39;23.13;;;3.30;;
2866;SDS011;1441;48.886;8.728;2024-01-25T05:23:05;18.87;;;3.67;;
2866;SDS011;1441;48.886;8.728;2024-01-25T05:25:30;20.37;;;4.33;;
2866;SDS011;1441;48.886;8.728;2024-01-25T05:27:56;18.30;;;3.83;;
2866;SDS011;1441;48.886;8.728;2024-01-25T05:30:23;22.47;;;3.97;;
2866;SDS011;1441;48.886;8.728;2024-01-25T05:32:49;15.60;;;3.73;;
2866;SDS011;1441;48.886;8.728;2024-01-25T05:35:15;19.83;;;3.50;;
2866;SDS011;1441;48.886;8.728;2024-01-25T05:37:41;28.37;;;3.60;;
2866;SDS011;1441;48.886;8.728;2024-01-25T05:40:07;9.60;;;2.90;;
2866;SDS011;1441;48.886;8.728;2024-01-25T05:42:34;18.37;;;2.90;;
2866;SDS011;1441;48.886;8.728;2024-01-25T05:45:00;18.83;;;2.93;;
2866;SDS011;1441;48.886;8.728;2024-01-25T05:47:26;16.03;;;4.03;;
2866;SDS011;1441;48.886;8.728;2024-01-25T05:49:52;12.43;;;3.47;;
2866;SDS011;1441;48.886;8.728;2024-01-25T05:52:17;23.03;;;3.63;;
2866;SDS011;1441;48.886;8.728;2024-01-25T05:54:43;26.17;;;4.70;;
2866;SDS011;1441;48.886;8.728;2024-01-25T05:57:09;17.43;;;2.93;;
2866;SDS011;1441;48.886;8.728;2024-01-25T05:59:34;22.93;;;3.87;;
2866;SDS011;1441;48.886;8.728;2024-01-25T06:02:00;23.23;;;3.73;;
2866;SDS011;1441;48.886;8.728;2024-01-25T06:04:25;20.03;;;4.10;;
2866;SDS011;1441;48.886;8.728;2024-01-25T06:06:51;16.83;;;3.33;;
2866;SDS011;1441;48.886;8.728;2024-01-25T06:09:17;22.80;;;3.50;;
2866;SDS011;1441;48.886;8.728;2024-01-25T06:11:42;22.73;;;3.70;;
2866;SDS011;1441;48.886;8.728;2024-01-25T06:14:08;27.63;;;3.57;;
2866;SDS011;1441;48.886;8.728;2024-01-25T06:16:34;19.47;;;4.73;;
2866;SDS011;1441;48.886;8.728;2024-01-25T06:19:00;18.37;;;4.10;;
2866;SDS011;1441;48.886;8.728;2024-01-25T06:21:27;19.27;;;4.53;;
2866;SDS011;1441;48.886;8.728;2024-01-25T06:23:53;17.83;;;3.00;;
2866;SDS011;1441;48.886;8.728;2024-01-25T06:26:18;21.93;;;3.60;;
2866;SDS011;1441;48.886;8.728;2024-01-25T06:28:44;12.43;;;3.03;;
2866;SDS011;1441;48.886;8.728;2024-01-25T06:31:09;23.13;;;5.30;;
2866;SDS011;1441;48.886;8.728;2024-01-25T06:33:35;20.77;;;4.80;;
2866;SDS011;1441;48.886;8.728;2024-01-25T06:36:00;16.43;;;3.30;;
2866;SDS011;1441;48.886;8.728;2024-01-25T06:38:26;26.77;;;3.53;;
2866;SDS011;1441;48.886;8.728;2024-01-25T06:40:51;21.37;;;3.40;;
2866;SDS011;1441;48.886;8.728;2024-01-25T06:43:17;20.77;;;3.40;;
2866;SDS011;1441;48.886;8.728;2024-01-25T06:45:42;23.80;;;3.90;;
2866;SDS011;1441;48.886;8.728;2024-01-25T06:48:08;21.90;;;3.20;;
2866;SDS011;1441;48.886;8.728;2024-01-25T06:50:34;28.77;;;4.00;;
2866;SDS011;1441;48.886;8.728;2024-01-25T06:53:00;26.80;;;4.03;;
2866;SDS011;1441;48.886;8.728;2024-01-25T06:55:25;20.17;;;3.97;;
2866;SDS011;1441;48.886;8.728;2024-01-25T06:57:51;15.07;;;3.50;;
2866;SDS011;1441;48.886;8.728;2024-01-25T07:00:17;22.07;;;3.63;;
2866;SDS011;1441;48.886;8.728;2024-01-25T07:02:45;28.90;;;3.93;;
2866;SDS011;1441;48.886;8.728;2024-01-25T07:05:11;20.80;;;4.80;;
2866;SDS011;1441;48.886;8.728;2024-01-25T07:07:37;32.17;;;4.27;;
2866;SDS011;1441;48.886;8.728;2024-01-25T07:10:04;22.90;;;5.13;;
2866;SDS011;1441;48.886;8.728;2024-01-25T07:12:30;19.07;;;3.00;;
2866;SDS011;1441;48.886;8.728;2024-01-25T07:14:55;13.07;;;3.27;;
2866;SDS011;1441;48.886;8.728;2024-01-25T07:17:21;17.20;;;3.57;;
2866;SDS011;1441;48.886;8.728;2024-01-25T07:19:46;19.10;;;3.70;;
2866;SDS011;1441;48.886;8.728;2024-01-25T07:22:12;22.10;;;3.93;;
2866;SDS011;1441;48.886;8.728;2024-01-25T07:24:40;24.03;;;4.23;;
2866;SDS011;1441;48.886;8.728;2024-01-25T07:27:05;24.67;;;3.87;;
2866;SDS011;1441;48.886;8.728;2024-01-25T07:29:31;20.90;;;4.17;;
2866;SDS011;1441;48.886;8.728;2024-01-25T07:31:56;24.03;;;3.50;;
2866;SDS011;1441;48.886;8.728;2024-01-25T07:34:22;11.57;;;2.47;;
2866;SDS011;1441;48.886;8.728;2024-01-25T07:36:48;21.43;;;3.83;;
2866;SDS011;1441;48.886;8.728;2024-01-25T07:39:13;19.03;;;3.87;;
2866;SDS011;1441;48.886;8.728;2024-01-25T07:41:39;16.10;;;3.53;;
2866;SDS011;1441;48.886;8.728;2024-01-25T07:44:04;18.23;;;3.67;;
2866;SDS011;1441;48.886;8.728;2024-01-25T07:46:30;12.37;;;3.00;;
2866;SDS011;1441;48.886;8.728;2024-01-25T07:48:57;16.03;;;3.63;;
2866;SDS011;1441;48.886;8.728;2024-01-25T07:51:23;20.07;;;3.73;;
2866;SDS011;1441;48.886;8.728;2024-01-25T07:53:53;15.30;;;3.20;;
2866;SDS011;1441;48.886;8.728;2024-01-25T07:56:19;12.13;;;3.40;;
2866;SDS011;1441;48.886;8.728;2024-01-25T07:58:46;19.37;;;3.27;;
2866;SDS011;1441;48.886;8.728;2024-01-25T08:01:13;22.73;;;4.27;;
2866;SDS011;1441;48.886;8.728;2024-01-25T08:03:42;24.63;;;3.60;;
2866;SDS011;1441;48.886;8.728;2024-01-25T08:06:08;27.13;;;4.40;;
2866;SDS011;1441;48.886;8.728;2024-01-25T08:08:34;14.57;;;3.00;;
2866;SDS011;1441;48.886;8.728;2024-01-25T08:10:59;17.53;;;3.83;;
2866;SDS011;1441;48.886;8.728;2024-01-25T08:13:25;21.00;;;3.97;;
2866;SDS011;1441;48.886;8.728;2024-01-25T08:15:53;23.13;;;3.57;;
2866;SDS011;1441;48.886;8.728;2024-01-25T08:18:18;24.80;;;4.40;;
2866;SDS011;1441;48.886;8.728;2024-01-25T08:20:44;14.90;;;3.83;;
2866;SDS011;1441;48.886;8.728;2024-01-25T08:23:10;17.73;;;4.93;;
2866;SDS011;1441;48.886;8.728;2024-01-25T08:25:35;15.63;;;4.47;;
2866;SDS011;1441;48.886;8.728;2024-01-25T08:28:01;25.00;;;4.60;;
2866;SDS011;1441;48.886;8.728;2024-01-25T08:30:27;32.73;;;5.20;;
2866;SDS011;1441;48.886;8.728;2024-01-25T08:32:52;18.93;;;2.93;;
2866;SDS011;1441;48.886;8.728;2024-01-25T08:35:18;21.57;;;5.00;;
2866;SDS011;1441;48.886;8.728;2024-01-25T08:37:43;12.13;;;3.67;;
2866;SDS011;1441;48.886;8.728;2024-01-25T08:40:09;23.33;;;3.37;;
2866;SDS011;1441;48.886;8.728;2024-01-25T08:42:35;23.27;;;4.20;;
2866;SDS011;1441;48.886;8.728;2024-01-25T08:45:01;22.03;;;3.50;;
2866;SDS011;1441;48.886;8.728;2024-01-25T08:47:27;17.47;;;3.67;;
2866;SDS011;1441;48.886;8.728;2024-01-25T08:49:52;13.13;;;3.53;;
2866;SDS011;1441;48.886;8.728;2024-01-25T08:52:18;20.87;;;3.17;;
2866;SDS011;1441;48.886;8.728;2024-01-25T08:54:44;13.47;;;3.00;;
2866;SDS011;1441;48.886;8.728;2024-01-25T08:57:09;17.40;;;3.33;;
2866;SDS011;1441;48.886;8.728;2024-01-25T08:59:35;18.90;;;3.33;;
2866;SDS011;1441;48.886;8.728;2024-01-25T09:02:03;18.03;;;3.40;;
2866;SDS011;1441;48.886;8.728;2024-01-25T09:04:31;19.70;;;3.70;;
2866;SDS011;1441;48.886;8.728;2024-01-25T09:06:57;18.37;;;3.57;;
2866;SDS011;1441;48.886;8.728;2024-01-25T09:09:23;19.57;;;3.33;;
2866;SDS011;1441;48.886;8.728;2024-01-25T09:11:48;21.80;;;4.50;;
2866;SDS011;1441;48.886;8.728;2024-01-25T09:14:14;17.77;;;3.30;;
2866;SDS011;1441;48.886;8.728;2024-01-25T09:16:40;13.67;;;3.23;;
2866;SDS011;1441;48.886;8.728;2024-01-25T09:19:05;16.13;;;2.90;;
2866;SDS011;1441;48.886;8.728;2024-01-25T09:21:31;14.60;;;3.10;;
2866;SDS011;1441;48.886;8.728;2024-01-25T09:23:57;13.70;;;2.83;;
2866;SDS011;1441;48.886;8.728;2024-01-25T09:26:22;23.73;;;3.73;;
2866;SDS011;1441;48.886;8.728;2024-01-25T09:28:48;17.80;;;3.27;;
2866;SDS011;1441;48.886;8.728;2024-01-25T09:31:13;18.60;;;3.20;;
2866;SDS011;1441;48.886;8.728;2024-01-25T09:33:39;15.80;;;3.10;;
2866;SDS011;1441;48.886;8.728;2024-01-25T09:36:05;12.80;;;2.60;;
2866;SDS011;1441;48.886;8.728;2024-01-25T09:38:30;17.13;;;3.23;;
2866;SDS011;1441;48.886;8.728;2024-01-25T09:40:56;19.53;;;3.23;;
2866;SDS011;1441;48.886;8.728;2024-01-25T09:43:22;23.97;;;3.20;;
2866;SDS011;1441;48.886;8.728;2024-01-25T09:45:52;15.67;;;3.23;;
2866;SDS011;1441;48.886;8.728;2024-01-25T09:48:21;14.07;;;3.00;;
2866;SDS011;1441;48.886;8.728;2024-01-25T09:50:47;19.30;;;3.10;;
2866;SDS011;1441;48.886;8.728;2024-01-25T09:53:22;17.63;;;3.17;;
2866;SDS011;1441;48.886;8.728;2024-01-25T09:55:57;11.27;;;2.60;;
2866;SDS011;1441;48.886;8.728;2024-01-25T09:58:31;18.13;;;3.20;;
2866;SDS011;1441;48.886;8.728;2024-01-25T10:01:02;13.47;;;2.80;;
2866;SDS011;1441;48.886;8.728;2024-01-25T10:03:28;16.50;;;2.73;;
2866;SDS011;1441;48.886;8.728;2024-01-25T10:05:54;25.43;;;3.37;;
2866;SDS011;1441;48.886;8.728;2024-01-25T10:08:19;17.00;;;3.23;;
2866;SDS011;1441;48.886;8.728;2024-01-25T10:10:48;17.20;;;2.90;;
2866;SDS011;1441;48.886;8.728;2024-01-25T10:13:14;13.53;;;2.33;;
2866;SDS011;1441;48.886;8.728;2024-01-25T10:15:40;13.57;;;3.23;;
2866;SDS011;1441;48.886;8.728;2024-01-25T10:18:07;18.57;;;2.80;;
2866;SDS011;1441;48.886;8.728;2024-01-25T10:20:38;16.77;;;2.53;;
2866;SDS011;1441;48.886;8.728;2024-01-25T10:23:09;12.90;;;2.80;;
2866;SDS011;1441;48.886;8.728;2024-01-25T10:25:35;9.23;;;2.40;;
2866;SDS011;1441;48.886;8.728;2024-01-25T10:28:05;12.63;;;2.50;;
2866;SDS011;1441;48.886;8.728;2024-01-25T10:30:32;17.00;;;3.10;;
2866;SDS011;1441;48.886;8.728;2024-01-25T10:32:59;16.03;;;2.30;;
2866;SDS011;1441;48.886;8.728;2024-01-25T10:35:25;14.80;;;2.93;;
2866;SDS011;1441;48.886;8.728;2024-01-25T10:37:51;20.93;;;2.33;;
2866;SDS011;1441;48.886;8.728;2024-01-25T10:40:21;15.33;;;2.90;;
2866;SDS011;1441;48.886;8.728;2024-01-25T10:42:47;11.60;;;2.17;;
2866;SDS011;1441;48.886;8.728;2024-01-25T10:45:13;13.80;;;2.20;;
2866;SDS011;1441;48.886;8.728;2024-01-25T10:47:39;15.73;;;2.47;;
2866;SDS011;1441;48.886;8.728;2024-01-25T10:50:11;17.33;;;3.63;;
2866;SDS011;1441;48.886;8.728;2024-01-25T10:52:38;11.77;;;2.50;;
2866;SDS011;1441;48.886;8.728;2024-01-25T10:55:05;17.93;;;3.13;;
2866;SDS011;1441;48.886;8.728;2024-01-25T10:57:36;9.83;;;2.10;;
2866;SDS011;1441;48.886;8.728;2024-01-25T11:00:04;15.90;;;2.23;;
2866;SDS011;1441;48.886;8.728;2024-01-25T11:02:34;12.43;;;2.50;;
2866;SDS011;1441;48.886;8.728;2024-01-25T11:05:08;10.73;;;2.60;;
2866;SDS011;1441;48.886;8.728;2024-01-25T11:07:46;9.57;;;2.17;;
2866;SDS011;1441;48.886;8.728;2024-01-25T11:10:17;14.30;;;2.00;;
2866;SDS011;1441;48.886;8.728;2024-01-25T11:12:57;13.83;;;2.53;;
2866;SDS011;1441;48.886;8.728;2024-01-25T11:15:31;12.20;;;3.30;;
2866;SDS011;1441;48.886;8.728;2024-01-25T11:18:01;13.70;;;2.30;;
2866;SDS011;1441;48.886;8.728;2024-01-25T11:20:29;13.40;;;2.57;;
2866;SDS011;1441;48.886;8.728;2024-01-25T11:22:58;17.00;;;2.50;;
2866;SDS011;1441;48.886;8.728;2024-01-25T11:25:26;18.47;;;3.60;;
2866;SDS011;1441;48.886;8.728;2024-01-25T11:27:56;11.90;;;2.17;;
2866;SDS011;1441;48.886;8.728;2024-01-25T11:30:22;10.77;;;1.70;;
2866;SDS011;1441;48.886;8.728;2024-01-25T11:32:48;11.07;;;2.27;;
2866;SDS011;1441;48.886;8.728;2024-01-25T11:35:14;8.37;;;2.00;;
2866;SDS011;1441;48.886;8.728;2024-01-25T11:37:46;9.57;;;2.57;;
2866;SDS011;1441;48.886;8.728;2024-01-25T11:40:13;7.73;;;2.53;;
2866;SDS011;1441;48.886;8.728;2024-01-25T11:42:39;12.70;;;3.17;;
2866;SDS011;1441;48.886;8.728;2024-01-25T11:45:08;7.60;;;2.27;;
2866;SDS011;1441;48.886;8.728;2024-01-25T11:47:37;10.60;;;3.37;;
2866;SDS011;1441;48.886;8.728;2024-01-25T11:50:04;8.30;;;2.63;;
2866;SDS011;1441;48.886;8.728;2024-01-25T11:52:30;11.27;;;2.13;;
2866;SDS011;1441;48.886;8.728;2024-01-25T11:55:01;14.47;;;2.30;;
2866;SDS011;1441;48.886;8.728;2024-01-25T11:57:31;11.03;;;2.40;;
2866;SDS011;1441;48.886;8.728;2024-01-25T11:59:59;13.43;;;1.97;;
2866;SDS011;1441;48.886;8.728;2024-01-25T12:02:25;7.40;;;2.17;;
2866;SDS011;1441;48.886;8.728;2024-01-25T12:04:52;11.73;;;2.37;;
2866;SDS011;1441;48.886;8.728;2024-01-25T12:07:20;8.97;;;2.10;;
2866;SDS011;1441;48.886;8.728;2024-01-25T12:09:56;16.93;;;3.57;;
2866;SDS011;1441;48.886;8.728;2024-01-25T12:12:27;10.00;;;2.73;;
2866;SDS011;1441;48.886;8.728;2024-01-25T12:14:59;15.10;;;2.70;;
2866;SDS011;1441;48.886;8.728;2024-01-25T12:17:26;17.93;;;2.87;;
2866;SDS011;1441;48.886;8.728;2024-01-25T12:19:56;12.67;;;2.30;;
2866;SDS011;1441;48.886;8.728;2024-01-25T12:22:22;9.70;;;2.23;;
2866;SDS011;1441;48.886;8.728;2024-01-25T12:24:50;11.70;;;2.60;;
2866;SDS011;1441;48.886;8.728;2024-01-25T12:27:19;10.57;;;3.07;;
2866;SDS011;1441;48.886;8.728;2024-01-25T12:29:49;7.50;;;2.60;;
2866;SDS011;1441;48.886;8.728;2024-01-25T12:32:21;10.50;;;1.83;;
2866;SDS011;1441;48.886;8.728;2024-01-25T12:34:56;13.00;;;2.37;;
2866;SDS011;1441;48.886;8.728;2024-01-25T12:37:22;9.67;;;1.93;;
2866;SDS011;1441;48.886;8.728;2024-01-25T12:39:50;7.67;;;1.73;;
2866;SDS011;1441;48.886;8.728;2024-01-25T12:42:16;8.70;;;1.67;;
2866;SDS011;1441;48.886;8.728;2024-01-25T12:44:43;8.67;;;1.70;;
2866;SDS011;1441;48.886;8.728;2024-01-25T12:47:09;9.07;;;2.17;;
2866;SDS011;1441;48.886;8.728;2024-01-25T12:49:35;10.03;;;2.03;;
2866;SDS011;1441;48.886;8.728;2024-01-25T12:52:00;8.00;;;1.50;;
2866;SDS011;1441;48.886;8.728;2024-01-25T12:54:26;10.60;;;2.00;;
2866;SDS011;1441;48.886;8.728;2024-01-25T12:56:53;7.07;;;2.17;;
2866;SDS011;1441;48.886;8.728;2024-01-25T12:59:19;6.63;;;1.40;;
2866;SDS011;1441;48.886;8.728;2024-01-25T13:01:45;9.70;;;1.63;;
2866;SDS011;1441;48.886;8.728;2024-01-25T13:04:10;8.23;;;1.70;;
2866;SDS011;1441;48.886;8.728;2024-01-25T13:06:36;7.03;;;1.77;;
2866;SDS011;1441;48.886;8.728;2024-01-25T13:09:02;8.93;;;1.60;;
2866;SDS011;1441;48.886;8.728;2024-01-25T13:11:28;6.23;;;2.00;;
2866;SDS011;1441;48.886;8.728;2024-01-25T13:13:54;2.60;;;1.33;;
2866;SDS011;1441;48.886;8.728;2024-01-25T13:16:20;11.23;;;1.73;;
2866;SDS011;1441;48.886;8.728;2024-01-25T13:18:45;10.63;;;1.50;;
2866;SDS011;1441;48.886;8.728;2024-01-25T13:21:11;10.07;;;1.77;;
2866;SDS011;1441;48.886;8.728;2024-01-25T13:23:37;5.07;;;1.50;;
2866;SDS011;1441;48.886;8.728;2024-01-25T13:26:03;5.33;;;1.53;;
2866;SDS011;1441;48.886;8.728;2024-01-25T13:28:28;5.53;;;1.70;;
2866;SDS011;1441;48.886;8.728;2024-01-25T13:30:55;6.40;;;1.30;;
2866;SDS011;1441;48.886;8.728;2024-01-25T13:33:21;8.57;;;1.57;;
2866;SDS011;1441;48.886;8.728;2024-01-25T13:35:47;6.93;;;1.73;;
2866;SDS011;1441;48.886;8.728;2024-01-25T13:38:12;11.00;;;2.40;;
2866;SDS011;1441;48.886;8.728;2024-01-25T13:40:39;8.97;;;1.57;;
2866;SDS011;1441;48.886;8.728;2024-01-25T13:43:05;10.23;;;1.70;;
2866;SDS011;1441;48.886;8.728;2024-01-25T13:45:31;3.83;;;1.47;;
2866;SDS011;1441;48.886;8.728;2024-01-25T13:47:56;13.90;;;1.60;;
2866;SDS011;1441;48.886;8.728;2024-01-25T13:50:22;5.63;;;1.67;;
2866;SDS011;1441;48.886;8.728;2024-01-25T13:52:47;9.17;;;2.50;;
2866;SDS011;1441;48.886;8.728;2024-01-25T13:55:13;6.10;;;2.03;;
2866;SDS011;1441;48.886;8.728;2024-01-25T13:57:39;3.53;;;1.40;;
2866;SDS011;1441;48.886;8.728;2024-01-25T14:00:04;9.03;;;2.10;;
2866;SDS011;1441;48.886;8.728;2024-01-25T14:02:31;10.97;;;2.00;;
2866;SDS011;1441;48.886;8.728;2024-01-25T14:04:57;6.00;;;1.47;;
2866;SDS011;1441;48.886;8.728;2024-01-25T14:07:23;5.63;;;1.73;;
2866;SDS011;1441;48.886;8.728;2024-01-25T14:09:48;3.10;;;1.23;;
2866;SDS011;1441;48.886;8.728;2024-01-25T14:12:14;12.30;;;2.20;;
2866;SDS011;1441;48.886;8.728;2024-01-25T14:14:39;6.57;;;1.40;;
2866;SDS011;1441;48.886;8.728;2024-01-25T14:17:06;9.13;;;1.93;;
2866;SDS011;1441;48.886;8.728;2024-01-25T14:19:32;3.13;;;1.20;;
2866;SDS011;1441;48.886;8.728;2024-01-25T14:21:57;9.53;;;1.70;;
2866;SDS011;1441;48.886;8.728;2024-01-25T14:24:23;10.07;;;1.50;;
2866;SDS011;1441;48.886;8.728;2024-01-25T14:26:48;8.80;;;1.53;;
2866;SDS011;1441;48.886;8.728;2024-01-25T14:29:14;9.40;;;1.40;;
2866;SDS011;1441;48.886;8.728;2024-01-25T14:31:39;7.30;;;1.53;;
2866;SDS011;1441;48.886;8.728;2024-01-25T14:34:06;5.13;;;1.60;;
2866;SDS011;1441;48.886;8.728;2024-01-25T14:36:34;6.33;;;1.57;;
2866;SDS011;1441;48.886;8.728;2024-01-25T14:38:59;6.03;;;1.40;;
2866;SDS011;1441;48.886;8.728;2024-01-25T14:41:25;7.20;;;2.10;;
2866;SDS011;1441;48.886;8.728;2024-01-25T14:43:51;7.83;;;1.40;;
2866;SDS011;1441;48.886;8.728;2024-01-25T14:46:16;8.23;;;2.13;;
2866;SDS011;1441;48.886;8.728;2024-01-25T14:48:42;4.60;;;1.60;;
2866;SDS011;1441;48.886;8.728;2024-01-25T14:51:07;8.43;;;1.63;;
2866;SDS011;1441;48.886;8.728;2024-01-25T14:53:33;6.00;;;1.47;;
2866;SDS011;1441;48.886;8.728;2024-01-25T14:55:58;5.23;;;2.17;;
2866;SDS011;1441;48.886;8.728;2024-01-25T14:58:24;10.17;;;2.10;;